Time;durP1;ratioP1;P1;durP2;ratioP2;P2;SDS_P1;SDS_P2;PMS_P1;PMS_P2;Temp;Humidity;BMP_temperature;BMP_pressure;BME280_temperature;BME280_humidity;BME280_pressure;Samples;Min_cycle;Max_cycle;Signal;HPM_P1;HPM_P2
2023/08/15 00:00:17;;;;;;;0.10;0.10;;;;;;;22.77;52.80;101554.81;5096082;28;20027;-94
2023/08/15 00:03:35;;;;;;;0.10;0.10;;;;;;;22.81;52.27;101547.47;5112058;28;20031;-92
2023/08/15 00:06:01;;;;;;;0.10;0.10;;;;;;;22.71;52.43;101541.31;5095505;28;20027;-93
2023/08/15 00:08:35;;;;;;;0.20;0.20;;;;;;;22.63;52.74;101543.81;5062178;28;20404;-91
2023/08/15 00:11:01;;;;;;;0.10;0.10;;;;;;;22.58;52.80;101539.72;5061703;28;20092;-92
2023/08/15 00:13:27;;;;;;;0.10;0.10;;;;;;;22.72;52.22;101545.66;5062753;28;20035;-92
2023/08/15 00:16:14;;;;;;;0.10;0.10;;;;;;;22.82;51.93;101557.09;5079298;28;20043;-92
2023/08/15 00:22:11;;;;;;;0.20;0.20;;;;;;;22.57;53.06;101550.41;5113564;28;20043;-93
2023/08/15 00:28:18;;;;;;;0.10;0.10;;;;;;;22.55;53.30;101540.00;5113487;28;20050;-93
2023/08/15 00:34:26;;;;;;;0.10;0.10;;;;;;;22.52;52.56;101545.56;5113469;28;20105;-93
2023/08/15 00:43:41;;;;;;;0.10;0.10;;;;;;;22.49;52.86;101540.50;5111406;28;20039;-92
2023/08/15 00:49:56;;;;;;;0.10;0.10;;;;;;;22.59;51.96;101546.69;5113377;28;20039;-92
2023/08/15 00:56:48;;;;;;;0.10;0.10;;;;;;;22.58;51.98;101544.19;5111851;28;20054;-93
2023/08/15 00:59:14;;;;;;;0.10;0.10;;;;;;;22.49;52.16;101545.78;5094503;28;20027;-92
2023/08/15 01:01:40;;;;;;;0.10;0.10;;;;;;;22.47;52.42;101546.91;5061632;28;20501;-91
2023/08/15 01:04:06;;;;;;;0.20;0.20;;;;;;;22.52;52.25;101550.00;5065527;28;20028;-92
2023/08/15 01:06:38;;;;;;;0.10;0.10;;;;;;;22.49;52.25;101545.78;5065264;28;20031;-92
2023/08/15 01:09:04;;;;;;;0.10;0.10;;;;;;;22.45;52.11;101533.84;5066053;28;20040;-96
2023/08/15 01:11:34;;;;;;;0.10;0.10;;;;;;;22.44;52.25;101536.63;5064876;28;20035;-92
2023/08/15 01:14:25;;;;;;;0.10;0.10;;;;;;;22.41;52.62;101545.59;5099298;28;20028;-92
2023/08/15 01:20:14;;;;;;;0.20;0.20;;;;;;;22.20;53.05;101524.50;5116238;28;20045;-93
2023/08/15 01:22:43;;;;;;;0.10;0.10;;;;;;;22.06;53.72;101519.53;5064900;28;20024;-93
2023/08/15 01:25:09;;;;;;;0.10;0.10;;;;;;;22.23;52.99;101518.16;5065843;28;20114;-95
2023/08/15 01:27:50;;;;;;;0.10;0.10;;;;;;;22.18;53.95;101529.09;5064580;28;20404;-92
2023/08/15 01:33:48;;;;;;;0.10;0.10;;;;;;;22.08;53.77;101522.06;5116387;28;20046;-91
2023/08/15 01:39:51;;;;;;;0.10;0.10;;;;;;;21.97;54.21;101513.22;5116185;28;20058;-93
2023/08/15 01:42:16;;;;;;;0.10;0.10;;;;;;;21.90;54.58;101517.31;5065015;28;20032;-92
2023/08/15 01:44:41;;;;;;;0.10;0.10;;;;;;;21.76;54.55;101494.78;5065129;28;20465;-91
2023/08/15 01:47:22;;;;;;;0.10;0.10;;;;;;;21.86;54.35;101505.38;5064404;28;20389;-92
2023/08/15 01:49:47;;;;;;;0.20;0.20;;;;;;;21.85;54.71;101500.25;5115412;28;20078;-93
2023/08/15 01:52:13;;;;;;;0.10;0.10;;;;;;;21.91;54.93;101511.09;5064994;28;20027;-91
2023/08/15 01:54:38;;;;;;;0.10;0.10;;;;;;;21.87;55.09;101508.84;5080568;28;20032;-93
2023/08/15 01:57:04;;;;;;;0.10;0.10;;;;;;;21.81;55.43;101510.19;5064533;28;20027;-91
2023/08/15 01:59:59;;;;;;;0.10;0.10;;;;;;;21.73;55.78;101505.56;5064743;28;20038;-93
2023/08/15 02:02:24;;;;;;;0.10;0.10;;;;;;;21.69;55.77;101504.13;5080639;28;20031;-91
2023/08/15 02:04:49;;;;;;;0.10;0.10;;;;;;;21.60;55.90;101504.03;5080566;28;20039;-91
2023/08/15 02:07:20;;;;;;;0.10;0.10;;;;;;;21.63;55.67;101495.88;5080781;28;20028;-93
2023/08/15 02:09:46;;;;;;;0.10;0.10;;;;;;;21.69;55.65;101500.66;5063795;28;20037;-92
2023/08/15 02:12:11;;;;;;;0.10;0.10;;;;;;;21.56;55.88;101500.84;5080810;28;20028;-91
2023/08/15 02:14:42;;;;;;;0.10;0.10;;;;;;;21.65;55.84;101505.34;5062659;28;20061;-92
2023/08/15 02:17:08;;;;;;;0.10;0.10;;;;;;;21.58;55.92;101506.81;5064184;28;20027;-92
2023/08/15 02:19:33;;;;;;;0.10;0.10;;;;;;;21.46;56.02;101498.13;5063828;28;20035;-92
2023/08/15 02:21:58;;;;;;;0.10;0.10;;;;;;;21.42;56.42;101498.47;5064249;28;20023;-93
2023/08/15 02:24:24;;;;;;;0.10;0.10;;;;;;;21.44;56.04;101505.31;5080495;28;20035;-94
2023/08/15 02:27:04;;;;;;;0.10;0.10;;;;;;;21.52;55.33;101509.09;5080382;28;20077;-92
2023/08/15 02:29:29;;;;;;;0.10;0.10;;;;;;;21.42;55.54;101517.72;5063429;28;20035;-91
2023/08/15 02:31:55;;;;;;;0.20;0.20;;;;;;;21.43;55.37;101519.44;5097321;28;20031;-92
2023/08/15 02:34:20;;;;;;;0.10;0.10;;;;;;;21.41;55.30;101521.31;5063261;28;20023;-93
2023/08/15 02:37:01;;;;;;;0.10;0.10;;;;;;;21.40;55.66;101529.34;5063643;28;20031;-92
2023/08/15 02:39:26;;;;;;;0.10;0.10;;;;;;;21.33;55.50;101515.84;5113639;28;20032;-91
2023/08/15 02:42:25;;;;;;;0.10;0.10;;;;;;;21.36;55.68;101534.03;5063202;28;20374;-92
2023/08/15 02:48:21;;;;;;;0.20;0.20;;;;;;;21.22;56.10;101531.63;5114772;28;20169;-91
2023/08/15 02:50:46;;;;;;;0.10;0.10;;;;;;;21.16;57.00;101532.13;5063618;28;20122;-91
2023/08/15 02:53:11;;;;;;;0.10;0.10;;;;;;;21.20;56.55;101534.38;5082423;28;20020;-94
2023/08/15 02:55:37;;;;;;;0.10;0.10;;;;;;;21.31;56.15;101533.56;5112522;28;20054;-93
2023/08/15 02:58:02;;;;;;;0.20;0.20;;;;;;;21.40;56.65;101529.34;5113140;28;20035;-93
2023/08/15 03:00:28;;;;;;;0.17;0.17;;;;;;;21.70;56.51;101532.13;5061453;28;20028;-93
2023/08/15 03:02:53;;;;;;;0.10;0.10;;;;;;;21.71;55.90;101525.91;5061175;28;20030;-91
2023/08/15 03:05:19;;;;;;;0.10;0.10;;;;;;;21.96;55.50;101537.06;5077517;28;20024;-90
2023/08/15 03:07:44;;;;;;;0.20;0.20;;;;;;;22.14;55.01;101540.03;5061008;28;20039;-93
2023/08/15 03:10:10;;;;;;;0.20;0.20;;;;;;;22.25;54.31;101535.53;5077643;28;20039;-93
2023/08/15 03:12:35;;;;;;;0.20;0.20;;;;;;;22.19;54.50;101538.66;5060888;28;20480;-92
2023/08/15 03:15:01;;;;;;;0.10;0.10;;;;;;;21.99;54.31;101536.81;5060925;28;20050;-91
2023/08/15 03:17:26;;;;;;;0.10;0.10;;;;;;;22.02;54.23;101558.50;5060953;28;20032;-91
2023/08/15 03:19:55;;;;;;;0.20;0.20;;;;;;;22.02;54.69;101563.75;5061013;28;20389;-91
2023/08/15 03:22:20;;;;;;;0.20;0.20;;;;;;;21.93;55.12;101553.16;5076959;28;20019;-91
2023/08/15 03:24:46;;;;;;;0.10;0.10;;;;;;;21.81;55.48;101543.59;5076753;28;20492;-91
2023/08/15 03:27:11;;;;;;;0.10;0.10;;;;;;;21.80;55.80;101563.00;5077301;28;20035;-91
2023/08/15 03:29:37;;;;;;;0.20;0.20;;;;;;;21.72;55.93;101563.59;5077376;28;20038;-91
2023/08/15 03:32:18;;;;;;;0.20;0.20;;;;;;;21.56;56.25;101560.56;5034227;27;20404;-91
2023/08/15 03:34:43;;;;;;;0.10;0.10;;;;;;;21.67;56.39;101568.44;5046354;28;20061;-90
2023/08/15 03:37:09;;;;;;;0.10;0.10;;;;;;;21.52;56.29;101564.38;5013885;28;20040;-89
2023/08/15 03:39:34;;;;;;;0.10;0.10;;;;;;;21.43;56.98;101579.97;5030406;28;20505;-91
2023/08/15 03:42:00;;;;;;;0.20;0.20;;;;;;;21.39;57.05;101581.16;5030109;28;20090;-90
2023/08/15 03:44:25;;;;;;;0.20;0.20;;;;;;;21.28;57.49;101562.75;5046914;28;20034;-91
2023/08/15 03:46:51;;;;;;;0.20;0.20;;;;;;;21.29;57.10;101564.44;5030724;28;20426;-91
2023/08/15 03:49:16;;;;;;;0.20;0.20;;;;;;;21.23;57.46;101564.88;5029913;28;20036;-89
2023/08/15 03:51:41;;;;;;;0.20;0.20;;;;;;;21.06;57.39;101565.38;5047288;28;20025;-88
2023/08/15 03:54:08;;;;;;;0.20;0.20;;;;;;;20.86;57.97;101562.50;5047985;28;20457;-87
2023/08/15 03:56:34;;;;;;;0.10;0.10;;;;;;;21.03;58.97;101594.53;5046448;28;20033;-88
2023/08/15 03:58:59;;;;;;;0.10;0.10;;;;;;;20.91;59.13;101591.06;5045261;28;20087;-89
2023/08/15 04:01:25;;;;;;;0.10;0.10;;;;;;;21.04;58.46;101596.22;5026664;28;20029;-88
2023/08/15 04:03:51;;;;;;;0.13;0.13;;;;;;;21.01;59.41;101594.66;5044109;28;20036;-89
2023/08/15 04:06:17;;;;;;;0.10;0.10;;;;;;;20.97;59.62;101584.50;4994019;28;20056;-89
2023/08/15 04:08:43;;;;;;;0.20;0.20;;;;;;;21.00;61.11;101579.84;5009808;28;20087;-89
2023/08/15 04:11:08;;;;;;;0.20;0.20;;;;;;;21.19;59.08;101587.13;4994657;28;20492;-93
2023/08/15 04:13:33;;;;;;;0.20;0.20;;;;;;;21.17;59.56;101581.16;4995367;28;20033;-91
2023/08/15 04:15:59;;;;;;;0.20;0.20;;;;;;;21.06;58.93;101562.75;5028964;28;20500;-84
2023/08/15 04:18:24;;;;;;;0.30;0.20;;;;;;;20.94;59.48;101554.00;5009087;28;20029;-82
2023/08/15 04:20:50;;;;;;;0.20;0.20;;;;;;;21.26;59.65;101585.72;5027341;28;20403;-91
2023/08/15 04:23:15;;;;;;;0.10;0.10;;;;;;;21.24;58.77;101590.25;5027403;28;20030;-87
2023/08/15 04:25:41;;;;;;;0.20;0.20;;;;;;;21.18;59.33;101598.63;5007603;28;20506;-85
2023/08/15 04:28:06;;;;;;;0.10;0.10;;;;;;;21.12;59.35;101591.19;5041172;28;20667;-85
2023/08/15 04:30:33;;;;;;;0.10;0.10;;;;;;;21.50;59.86;101604.00;5022164;28;20057;-93
2023/08/15 04:32:58;;;;;;;0.20;0.20;;;;;;;21.93;57.39;101604.03;4974514;28;20046;-92
2023/08/15 04:35:24;;;;;;;0.10;0.10;;;;;;;22.25;56.11;101579.50;4979539;28;20032;-89
2023/08/15 04:37:50;;;;;;;0.10;0.10;;;;;;;22.83;54.41;101622.06;4989127;28;20033;-90
2023/08/15 04:40:20;;;;;;;0.20;0.20;;;;;;;22.85;54.07;101615.72;4989862;28;20069;-89
2023/08/15 04:42:45;;;;;;;0.10;0.10;;;;;;;23.11;53.49;101625.88;4982839;28;20033;-93
2023/08/15 04:45:11;;;;;;;0.10;0.10;;;;;;;23.22;53.38;101615.22;4960964;28;20034;-92
2023/08/15 04:47:36;;;;;;;0.10;0.10;;;;;;;23.06;54.38;101628.88;4976126;28;20034;-89
2023/08/15 04:50:02;;;;;;;0.10;0.10;;;;;;;23.40;53.28;101610.09;4976159;28;20491;-89
2023/08/15 04:52:27;;;;;;;0.10;0.10;;;;;;;23.53;52.17;101623.91;4992601;28;20027;-90
2023/08/15 04:54:53;;;;;;;0.20;0.20;;;;;;;23.35;52.74;101602.59;4978531;28;20041;-88
2023/08/15 04:57:18;;;;;;;0.17;0.17;;;;;;;23.37;53.00;101600.66;4960416;28;20022;-83
2023/08/15 04:59:44;;;;;;;0.10;0.10;;;;;;;23.47;52.32;101603.31;4974765;28;20030;-85
2023/08/15 05:02:09;;;;;;;0.15;0.15;;;;;;;23.50;52.86;101616.28;5006996;28;20034;-83
2023/08/15 05:04:34;;;;;;;0.10;0.10;;;;;;;23.45;53.01;101613.19;4986598;28;20035;-83
2023/08/15 05:07:00;;;;;;;0.20;0.20;;;;;;;23.53;52.99;101605.44;4956789;28;20027;-86
2023/08/15 05:09:29;;;;;;;0.10;0.10;;;;;;;23.87;52.56;101620.94;4956432;28;20039;-86
2023/08/15 05:11:54;;;;;;;0.20;0.20;;;;;;;23.96;52.18;101606.91;4988680;28;20484;-86
2023/08/15 05:14:20;;;;;;;0.10;0.10;;;;;;;24.11;51.93;101610.81;4966012;28;20067;-93
2023/08/15 05:16:45;;;;;;;0.10;0.10;;;;;;;24.12;52.40;101612.50;4976199;28;20424;-88
2023/08/15 05:19:11;;;;;;;0.10;0.10;;;;;;;23.94;52.64;101598.28;4991962;28;20492;-87
2023/08/15 05:21:36;;;;;;;0.20;0.20;;;;;;;23.79;52.98;101589.09;4991872;28;20416;-86
2023/08/15 05:24:02;;;;;;;0.20;0.20;;;;;;;23.80;53.06;101618.03;4972146;28;20085;-87
2023/08/15 05:26:27;;;;;;;0.10;0.10;;;;;;;23.70;53.83;101617.19;4943824;28;20132;-84
2023/08/15 05:28:53;;;;;;;0.20;0.20;;;;;;;23.85;53.72;101602.59;5010372;28;20041;-88
2023/08/15 05:31:18;;;;;;;0.10;0.10;;;;;;;24.18;52.76;101626.94;4994281;28;20081;-86
2023/08/15 05:33:44;;;;;;;0.10;0.10;;;;;;;24.13;51.99;101623.91;4966018;28;20042;-85
2023/08/15 05:36:09;;;;;;;0.10;0.10;;;;;;;24.13;53.23;101630.03;4971147;28;20046;-88
2023/08/15 05:38:36;;;;;;;0.10;0.10;;;;;;;24.17;52.84;101630.56;4975164;28;20038;-88
2023/08/15 05:41:01;;;;;;;0.10;0.10;;;;;;;24.07;53.07;101640.31;4975649;28;20126;-85
2023/08/15 05:43:27;;;;;;;0.10;0.10;;;;;;;23.91;53.83;101640.88;4975699;28;20412;-88
2023/08/15 05:45:52;;;;;;;0.10;0.10;;;;;;;23.83;55.05;101667.97;4992517;28;20069;-86
2023/08/15 05:48:18;;;;;;;0.10;0.10;;;;;;;23.43;55.76;101642.38;4959196;28;20492;-86
2023/08/15 05:50:46;;;;;;;0.20;0.20;;;;;;;23.42;57.01;101653.06;4975630;28;20428;-91
2023/08/15 05:53:12;;;;;;;0.10;0.10;;;;;;;23.12;57.81;101653.91;4975978;28;20034;-87
2023/08/15 05:55:37;;;;;;;0.20;0.20;;;;;;;23.51;57.00;101665.47;5002750;28;20495;-91
2023/08/15 05:58:03;;;;;;;0.10;0.10;;;;;;;23.31;57.19;101645.25;4994832;28;20026;-88
2023/08/15 06:00:28;;;;;;;0.10;0.10;;;;;;;23.31;57.60;101659.28;4981357;28;20035;-92
2023/08/15 06:02:54;;;;;;;0.20;0.20;;;;;;;23.24;57.89;101670.50;5010189;28;20033;-86
2023/08/15 06:05:21;;;;;;;0.10;0.10;;;;;;;23.30;58.13;101678.72;5001336;28;20042;-88
2023/08/15 06:07:46;;;;;;;0.10;0.10;;;;;;;23.25;57.80;101680.09;4972893;28;20109;-84
2023/08/15 06:10:12;;;;;;;0.10;0.10;;;;;;;23.43;56.84;101673.22;4989882;28;20037;-92
2023/08/15 06:12:37;;;;;;;0.10;0.10;;;;;;;23.57;56.64;101670.22;4976833;28;20068;-90
2023/08/15 06:15:03;;;;;;;0.10;0.10;;;;;;;23.73;56.24;101667.09;4985720;28;20034;-88
2023/08/15 06:17:28;;;;;;;0.20;0.20;;;;;;;24.00;55.33;101666.47;4983387;28;20109;-90
2023/08/15 06:19:54;;;;;;;0.10;0.10;;;;;;;23.98;55.16;101665.75;4983764;28;20097;-91
2023/08/15 06:22:19;;;;;;;0.10;0.10;;;;;;;24.02;54.75;101654.78;4989328;28;20030;-86
2023/08/15 06:24:45;;;;;;;0.10;0.10;;;;;;;24.04;54.09;101670.50;4973557;28;20468;-86
2023/08/15 06:27:11;;;;;;;0.10;0.10;;;;;;;23.96;54.11;101683.56;4989910;28;20030;-84
2023/08/15 06:29:37;;;;;;;0.10;0.10;;;;;;;24.01;53.37;101678.72;4990717;28;20026;-84
2023/08/15 06:32:06;;;;;;;0.10;0.10;;;;;;;24.15;52.26;101677.47;4965554;28;20054;-91
2023/08/15 06:34:31;;;;;;;0.10;0.10;;;;;;;24.08;51.83;101678.97;4976532;28;20125;-87
2023/08/15 06:36:57;;;;;;;0.20;0.20;;;;;;;24.05;53.34;101674.81;5006454;28;20101;-93
2023/08/15 06:39:22;;;;;;;0.10;0.10;;;;;;;24.18;52.80;101680.66;5014608;28;20084;-92
2023/08/15 06:41:48;;;;;;;0.10;0.10;;;;;;;24.37;52.44;101679.03;4965170;28;20031;-92
2023/08/15 06:44:13;;;;;;;0.20;0.20;;;;;;;24.27;52.47;101698.34;4959031;28;20033;-87
2023/08/15 06:46:39;;;;;;;0.10;0.10;;;;;;;24.14;52.95;101705.72;5008630;28;20034;-92
2023/08/15 06:49:04;;;;;;;0.10;0.10;;;;;;;23.99;53.55;101680.63;4993820;28;20030;-90
2023/08/15 06:51:30;;;;;;;0.10;0.10;;;;;;;23.90;54.67;101681.47;4991907;28;20049;-91
2023/08/15 06:53:55;;;;;;;0.20;0.20;;;;;;;23.86;54.45;101709.13;4990188;28;20053;-89
2023/08/15 06:56:21;;;;;;;0.13;0.13;;;;;;;23.69;54.41;101674.44;4972282;28;20043;-87
2023/08/15 06:58:46;;;;;;;0.10;0.10;;;;;;;24.13;54.36;101717.25;4953761;28;20043;-85
2023/08/15 07:01:12;;;;;;;0.20;0.20;;;;;;;24.29;54.90;101722.84;4976525;28;20030;-88
2023/08/15 07:03:38;;;;;;;0.10;0.10;;;;;;;24.05;56.35;101706.53;4990874;28;20485;-86
2023/08/15 07:06:04;;;;;;;0.10;0.10;;;;;;;23.81;58.54;101717.47;4989166;28;20408;-90
2023/08/15 07:08:30;;;;;;;0.10;0.10;;;;;;;23.14;64.60;101684.50;4990387;28;20034;-86
2023/08/15 07:10:56;;;;;;;0.10;0.10;;;;;;;22.88;66.27;101677.94;4988942;28;20030;-87
2023/08/15 07:13:21;;;;;;;0.10;0.10;;;;;;;;;;4957315;28;20039;-88
2023/08/15 07:15:52;;;;;;;0.10;0.10;;;;;;;22.81;68.75;101688.16;5005679;28;20100;-90
2023/08/15 07:18:18;;;;;;;0.10;0.10;;;;;;;22.58;68.27;101687.41;4986590;28;20038;-90
2023/08/15 07:20:44;;;;;;;0.20;0.20;;;;;;;22.52;69.86;101700.28;4957892;28;20760;-92
2023/08/15 07:23:10;;;;;;;0.10;0.10;;;;;;;23.11;68.94;101705.88;4992344;28;20072;-88
2023/08/15 07:25:41;;;;;;;0.10;0.10;;;;;;;23.11;68.36;101695.31;5004850;28;20974;-92
2023/08/15 07:28:07;;;;;;;0.20;0.20;;;;;;;23.39;67.97;101698.22;4974162;28;20022;-88
2023/08/15 07:30:32;;;;;;;0.10;0.10;;;;;;;23.41;68.50;101691.03;5005063;28;20523;-90
2023/08/15 07:32:57;;;;;;;0.20;0.20;;;;;;;23.66;69.46;101700.31;4981297;28;20501;-90
2023/08/15 07:35:23;;;;;;;0.10;0.10;;;;;;;23.49;68.82;101685.88;4975273;28;20030;-88
2023/08/15 07:37:48;;;;;;;0.13;0.13;;;;;;;23.48;70.04;101685.03;4957958;28;20034;-90
2023/08/15 07:40:18;;;;;;;0.10;0.10;;;;;;;23.36;70.21;101672.09;4974075;28;20041;-89
2023/08/15 07:42:44;;;;;;;0.20;0.20;;;;;;;23.63;67.91;101679.44;4989974;28;20112;-88
2023/08/15 07:45:10;;;;;;;0.20;0.20;;;;;;;23.71;67.57;101692.81;4994563;28;20034;-91
2023/08/15 07:47:38;;;;;;;0.20;0.20;;;;;;;23.94;66.90;101706.66;4994083;28;20061;-87
2023/08/15 07:50:13;;;;;;;0.10;0.10;;;;;;;23.93;67.92;101712.91;4993103;28;20129;-87
2023/08/15 07:52:38;;;;;;;0.10;0.10;;;;;;;23.78;65.28;101698.38;4970675;28;20413;-89
2023/08/15 07:55:04;;;;;;;0.10;0.10;;;;;;;23.92;66.44;101711.25;4955344;28;20023;-92
2023/08/15 07:57:29;;;;;;;0.10;0.10;;;;;;;24.02;65.45;101720.84;4970586;28;20114;-92
2023/08/15 07:59:55;;;;;;;0.10;0.10;;;;;;;24.14;64.46;101705.72;4971619;28;20034;-89
2023/08/15 08:02:20;;;;;;;0.10;0.10;;;;;;;24.37;64.92;101710.75;4971783;28;20093;-91
2023/08/15 08:04:46;;;;;;;0.10;0.10;;;;;;;24.44;64.88;101702.16;4990267;28;20899;-92
2023/08/15 08:07:11;;;;;;;0.10;0.10;;;;;;;24.43;64.31;101700.47;4972989;28;20039;-92
2023/08/15 08:09:37;;;;;;;0.20;0.20;;;;;;;24.22;63.92;101666.22;4989525;28;20030;-88
2023/08/15 08:12:02;;;;;;;0.10;0.10;;;;;;;24.55;64.59;101709.09;4989636;28;20073;-90
2023/08/15 08:14:28;;;;;;;0.10;0.10;;;;;;;24.47;65.14;101714.25;4972238;28;20539;-86
2023/08/15 08:16:54;;;;;;;0.20;0.20;;;;;;;24.40;64.95;101699.94;4981504;28;20027;-86
2023/08/15 08:19:19;;;;;;;0.10;0.10;;;;;;;24.63;63.92;101709.25;4994929;28;20041;-89
2023/08/15 08:21:45;;;;;;;0.10;0.10;;;;;;;24.68;64.05;101712.31;4958763;28;20046;-90
2023/08/15 08:24:10;;;;;;;0.10;0.10;;;;;;;24.94;63.30;101703.78;4994599;28;20030;-91
2023/08/15 08:26:36;;;;;;;0.10;0.10;;;;;;;24.98;62.54;101694.59;4961369;28;20390;-90
2023/08/15 08:29:01;;;;;;;0.10;0.10;;;;;;;25.10;62.28;101704.06;4993853;28;20093;-90
2023/08/15 08:31:27;;;;;;;0.10;0.10;;;;;;;25.05;62.22;101707.13;4974585;28;20054;-87
2023/08/15 08:33:52;;;;;;;0.10;0.10;;;;;;;25.08;62.24;101700.72;4992065;28;20045;-89
2023/08/15 08:36:18;;;;;;;0.10;0.10;;;;;;;25.13;62.20;101693.16;4990605;28;20037;-90
2023/08/15 08:38:43;;;;;;;0.10;0.10;;;;;;;25.24;62.01;101690.34;4975334;28;20484;-93
2023/08/15 08:41:08;;;;;;;0.20;0.20;;;;;;;25.37;61.55;101700.63;4990953;28;20104;-87
2023/08/15 08:43:34;;;;;;;0.10;0.10;;;;;;;25.41;61.77;101702.84;4958258;28;20037;-87
2023/08/15 08:46:00;;;;;;;0.10;0.10;;;;;;;25.42;61.69;101688.59;4974509;28;20038;-87
2023/08/15 08:48:25;;;;;;;0.10;0.10;;;;;;;25.49;62.87;101685.38;4976289;28;20069;-89
2023/08/15 08:50:51;;;;;;;0.10;0.10;;;;;;;25.50;62.17;101685.22;4980083;28;20037;-92
2023/08/15 08:53:16;;;;;;;0.20;0.20;;;;;;;25.38;63.11;101676.66;4978488;28;20511;-91
2023/08/15 08:55:43;;;;;;;0.10;0.10;;;;;;;25.12;63.92;101660.56;4976078;28;20049;-89
2023/08/15 08:58:10;;;;;;;0.10;0.10;;;;;;;25.37;59.11;101708.59;4976768;28;20061;-86
2023/08/15 09:00:35;;;;;;;0.20;0.20;;;;;;;25.28;60.66;101685.59;4976035;28;20069;-89
2023/08/15 09:03:01;;;;;;;0.10;0.10;;;;;;;25.29;61.81;101690.75;4983397;28;20034;-85
2023/08/15 09:05:27;;;;;;;0.20;0.20;;;;;;;25.40;60.07;101703.81;4992484;28;20030;-86
2023/08/15 09:07:52;;;;;;;0.10;0.10;;;;;;;25.38;60.40;101689.88;4975954;28;20030;-88
2023/08/15 09:10:20;;;;;;;0.10;0.10;;;;;;;25.41;57.17;101697.53;4959698;28;20076;-87
2023/08/15 09:12:46;;;;;;;0.20;0.20;;;;;;;25.51;59.79;101691.38;4975016;28;20064;-87
2023/08/15 09:15:12;;;;;;;0.10;0.10;;;;;;;25.67;59.70;101683.63;4988158;28;20093;-89
2023/08/15 09:17:38;;;;;;;0.20;0.20;;;;;;;25.51;57.18;101671.00;4973999;28;20038;-87
2023/08/15 09:20:16;;;;;;;0.10;0.10;;;;;;;25.51;54.92;101694.00;4962473;28;20041;-88
2023/08/15 09:22:44;;;;;;;0.10;0.10;;;;;;;25.27;55.98;101681.25;4976026;28;20396;-86
2023/08/15 09:25:10;;;;;;;0.10;0.10;;;;;;;25.29;57.71;101696.06;5011325;28;20060;-88
2023/08/15 09:27:36;;;;;;;0.10;0.10;;;;;;;25.25;57.94;101676.13;4971623;28;20077;-89
2023/08/15 09:30:09;;;;;;;0.10;0.10;;;;;;;25.19;57.38;101674.06;4993249;28;20033;-91
2023/08/15 09:32:34;;;;;;;0.10;0.10;;;;;;;25.16;56.13;101666.38;4990712;28;20049;-92
2023/08/15 09:35:00;;;;;;;0.20;0.20;;;;;;;25.08;55.71;101668.94;4992218;28;20445;-90
2023/08/15 09:37:25;;;;;;;0.10;0.10;;;;;;;25.03;56.35;101676.47;4982690;28;20037;-89
2023/08/15 09:39:51;;;;;;;0.10;0.10;;;;;;;25.11;56.76;101679.25;4975894;28;20038;-88
2023/08/15 09:42:20;;;;;;;0.20;0.20;;;;;;;25.16;57.20;101669.03;4999557;28;20412;-86
2023/08/15 09:44:45;;;;;;;0.20;0.20;;;;;;;25.20;58.52;101673.09;4975841;28;20034;-90
2023/08/15 09:47:11;;;;;;;0.10;0.10;;;;;;;25.20;58.50;101667.78;4949599;28;20567;-93
2023/08/15 09:49:36;;;;;;;0.20;0.20;;;;;;;25.23;56.94;101659.53;4955901;28;20516;-86
2023/08/15 09:52:02;;;;;;;0.10;0.10;;;;;;;25.28;55.19;101661.78;4954707;28;20035;-87
2023/08/15 09:54:28;;;;;;;0.10;0.10;;;;;;;25.26;55.22;101661.88;4955446;28;20034;-86
2023/08/15 09:56:53;;;;;;;0.10;0.10;;;;;;;25.34;54.35;101662.00;4956114;28;20029;-89
2023/08/15 09:59:19;;;;;;;0.13;0.13;;;;;;;25.41;55.02;101657.81;4979708;28;20089;-90
2023/08/15 10:01:45;;;;;;;0.10;0.10;;;;;;;25.59;56.24;101662.31;4987692;28;20496;-89
2023/08/15 10:04:11;;;;;;;0.10;0.10;;;;;;;25.54;55.73;101654.81;4976684;28;20088;-91
2023/08/15 10:06:37;;;;;;;0.20;0.20;;;;;;;25.55;54.71;101668.88;4975488;28;20034;-89
2023/08/15 10:09:05;;;;;;;0.10;0.10;;;;;;;25.52;55.01;101645.34;4975115;28;20023;-87
2023/08/15 10:11:33;;;;;;;0.10;0.10;;;;;;;25.60;53.58;101645.44;4975389;28;20052;-86
2023/08/15 10:13:58;;;;;;;0.20;0.20;;;;;;;25.46;54.08;101636.16;4974330;28;20121;-87
2023/08/15 10:16:24;;;;;;;0.20;0.20;;;;;;;25.59;55.12;101635.81;4956707;28;20057;-89
2023/08/15 10:18:54;;;;;;;0.10;0.10;;;;;;;25.71;54.16;101634.66;4982665;28;20487;-89
2023/08/15 10:21:19;;;;;;;0.10;0.10;;;;;;;25.80;54.45;101647.03;5055226;23;20062;-91
2023/08/15 10:23:45;;;;;;;0.20;0.20;;;;;;;25.75;54.40;101641.31;4920608;29;20521;-90
2023/08/15 10:26:10;;;;;;;0.20;0.17;;;;;;;25.70;53.51;101622.41;4920466;29;20067;-89
2023/08/15 10:28:36;;;;;;;0.10;0.10;;;;;;;25.72;53.87;101628.38;4937538;28;20082;-87
2023/08/15 10:31:01;;;;;;;0.10;0.10;;;;;;;25.83;54.66;101622.84;4955351;28;20035;-84
2023/08/15 10:33:29;;;;;;;0.10;0.10;;;;;;;25.86;53.91;101611.97;4928221;28;20505;-86
2023/08/15 10:35:54;;;;;;;0.10;0.10;;;;;;;25.95;53.21;101624.28;4951406;29;20031;-86
2023/08/15 10:38:35;;;;;;;0.20;0.20;;;;;;;25.87;53.30;101597.72;4951651;28;20039;-85
2023/08/15 10:41:12;;;;;;;0.10;0.10;;;;;;;26.19;53.78;101605.13;4949584;28;20045;-84
2023/08/15 10:43:37;;;;;;;0.10;0.10;;;;;;;26.08;51.40;101575.38;4951629;29;20030;-87
2023/08/15 10:46:04;;;;;;;0.20;0.20;;;;;;;26.29;51.49;101599.75;4950936;29;20106;-85
2023/08/15 10:48:43;;;;;;;0.10;0.10;;;;;;;26.41;51.75;101610.97;4932346;29;20031;-85
2023/08/15 10:51:35;;;;;;;0.20;0.20;;;;;;;26.58;50.83;101602.97;4933130;29;20493;-85
2023/08/15 10:54:02;;;;;;;0.20;0.20;;;;;;;26.75;50.40;101592.47;4930272;29;20451;-91
2023/08/15 10:56:30;;;;;;;0.20;0.20;;;;;;;26.80;50.18;101588.34;4917369;29;20421;-89
2023/08/15 10:58:56;;;;;;;0.20;0.20;;;;;;;26.87;49.55;101591.19;4931359;29;20110;-91
2023/08/15 11:01:23;;;;;;;0.10;0.10;;;;;;;26.85;49.09;101593.19;4948356;28;20038;-89
2023/08/15 11:03:54;;;;;;;0.10;0.10;;;;;;;26.85;49.83;101588.72;4955618;28;20030;-93
2023/08/15 11:06:20;;;;;;;0.20;0.20;;;;;;;26.88;49.83;101585.72;4936592;29;20047;-87
2023/08/15 11:08:47;;;;;;;0.10;0.10;;;;;;;26.69;50.25;101567.38;4948346;29;20532;-85
2023/08/15 11:11:13;;;;;;;0.20;0.20;;;;;;;26.82;50.43;101577.56;4934975;29;20067;-84
2023/08/15 11:13:58;;;;;;;0.20;0.20;;;;;;;26.84;51.51;101576.44;4933847;29;20031;-87
2023/08/15 11:16:23;;;;;;;0.20;0.20;;;;;;;26.80;51.25;101560.97;4954830;28;20037;-86
2023/08/15 11:18:49;;;;;;;0.20;0.20;;;;;;;26.70;51.70;101545.16;4931305;29;20031;-87
2023/08/15 11:21:15;;;;;;;0.20;0.20;;;;;;;26.91;51.75;101560.69;4950285;28;20036;-89
2023/08/15 11:23:40;;;;;;;0.20;0.20;;;;;;;26.95;51.92;101556.72;4935437;29;20086;-87
2023/08/15 11:26:11;;;;;;;0.20;0.20;;;;;;;27.15;51.88;101568.78;4939262;28;20034;-91
2023/08/15 11:28:37;;;;;;;0.20;0.20;;;;;;;27.18;51.54;101561.50;4924224;28;20078;-87
2023/08/15 11:31:10;;;;;;;0.20;0.20;;;;;;;27.25;51.27;101552.72;4951442;29;20450;-85
2023/08/15 11:33:35;;;;;;;0.20;0.20;;;;;;;27.43;51.19;101544.59;4954658;28;20045;-86
2023/08/15 11:36:14;;;;;;;0.20;0.20;;;;;;;27.57;51.11;101545.81;4961816;28;20477;-85
2023/08/15 11:38:39;;;;;;;0.20;0.20;;;;;;;27.67;50.38;101552.69;4970029;28;20062;-90
2023/08/15 11:41:05;;;;;;;0.15;0.15;;;;;;;27.84;51.43;101547.38;4953976;28;20453;-88
2023/08/15 11:43:34;;;;;;;0.20;0.20;;;;;;;28.08;49.99;101542.03;4953805;28;20039;-85
2023/08/15 11:46:03;;;;;;;0.20;0.20;;;;;;;28.28;50.35;101543.38;4967857;28;20041;-87
2023/08/15 11:48:32;;;;;;;0.20;0.20;;;;;;;28.48;49.83;101538.53;4954630;28;20161;-85
2023/08/15 11:50:58;;;;;;;0.20;0.20;;;;;;;28.63;49.53;101530.69;4970589;28;20109;-86
2023/08/15 11:53:23;;;;;;;0.20;0.20;;;;;;;28.63;48.69;101517.38;4944034;28;20476;-91
2023/08/15 11:55:49;;;;;;;0.10;0.10;;;;;;;28.92;48.45;101539.94;4957571;28;20022;-88
2023/08/15 11:58:30;;;;;;;0.20;0.20;;;;;;;28.92;48.29;101534.59;4941934;28;20038;-92
2023/08/15 12:01:06;;;;;;;0.20;0.20;;;;;;;29.04;48.22;101530.53;4944885;28;20031;-89
2023/08/15 12:03:32;;;;;;;0.10;0.10;;;;;;;28.97;48.28;101524.25;4959004;28;20034;-90
2023/08/15 12:06:05;;;;;;;0.20;0.20;;;;;;;29.19;47.18;101528.78;4964412;28;20034;-90